sensor_id;sensor_type;location;lat;lon;timestamp;temperature;humidity
1994;DHT22;998;49.906;10.908;2023-07-31T00:01:41;18.80;99.90
1994;DHT22;998;49.906;10.908;2023-07-31T00:04:08;18.80;99.90
1994;DHT22;998;49.906;10.908;2023-07-31T00:06:36;18.80;99.90
1994;DHT22;998;49.906;10.908;2023-07-31T00:09:04;18.80;99.90
1994;DHT22;998;49.906;10.908;2023-07-31T00:11:31;18.80;99.90
1994;DHT22;998;49.906;10.908;2023-07-31T00:13:58;18.80;99.90
1994;DHT22;998;49.906;10.908;2023-07-31T00:16:26;18.70;99.90
1994;DHT22;998;49.906;10.908;2023-07-31T00:18:53;18.70;99.90
1994;DHT22;998;49.906;10.908;2023-07-31T00:21:21;18.70;99.90
1994;DHT22;998;49.906;10.908;2023-07-31T00:23:48;18.70;99.90
1994;DHT22;998;49.906;10.908;2023-07-31T00:26:17;18.70;99.90
1994;DHT22;998;49.906;10.908;2023-07-31T00:28:45;18.70;99.90
1994;DHT22;998;49.906;10.908;2023-07-31T00:31:12;18.70;99.90
1994;DHT22;998;49.906;10.908;2023-07-31T00:33:39;18.70;99.90
1994;DHT22;998;49.906;10.908;2023-07-31T00:36:07;18.70;99.90
1994;DHT22;998;49.906;10.908;2023-07-31T00:38:34;18.70;99.90
1994;DHT22;998;49.906;10.908;2023-07-31T00:41:01;18.70;99.90
1994;DHT22;998;49.906;10.908;2023-07-31T00:43:30;18.70;99.90
1994;DHT22;998;49.906;10.908;2023-07-31T00:45:58;18.70;99.90
1994;DHT22;998;49.906;10.908;2023-07-31T00:48:25;18.70;99.90
1994;DHT22;998;49.906;10.908;2023-07-31T00:50:53;18.80;99.90
1994;DHT22;998;49.906;10.908;2023-07-31T00:53:21;18.80;99.90
1994;DHT22;998;49.906;10.908;2023-07-31T00:55:48;18.80;99.90
1994;DHT22;998;49.906;10.908;2023-07-31T00:58:15;18.70;99.90
1994;DHT22;998;49.906;10.908;2023-07-31T01:00:44;18.70;99.90
1994;DHT22;998;49.906;10.908;2023-07-31T01:03:12;18.70;99.90
1994;DHT22;998;49.906;10.908;2023-07-31T01:05:43;18.70;99.90
1994;DHT22;998;49.906;10.908;2023-07-31T01:08:24;18.60;99.90
1994;DHT22;998;49.906;10.908;2023-07-31T01:10:57;18.50;99.90
1994;DHT22;998;49.906;10.908;2023-07-31T01:13:28;18.40;99.90
1994;DHT22;998;49.906;10.908;2023-07-31T01:15:57;18.40;99.90
1994;DHT22;998;49.906;10.908;2023-07-31T01:18:24;18.40;99.90
1994;DHT22;998;49.906;10.908;2023-07-31T01:20:57;18.40;99.90
1994;DHT22;998;49.906;10.908;2023-07-31T01:26:45;18.20;99.90
1994;DHT22;998;49.906;10.908;2023-07-31T01:29:17;18.20;99.90
1994;DHT22;998;49.906;10.908;2023-07-31T01:31:49;18.30;99.90
1994;DHT22;998;49.906;10.908;2023-07-31T01:34:18;18.30;99.90
1994;DHT22;998;49.906;10.908;2023-07-31T01:36:46;18.20;99.90
1994;DHT22;998;49.906;10.908;2023-07-31T01:39:13;18.10;99.90
1994;DHT22;998;49.906;10.908;2023-07-31T01:41:42;18.10;99.90
1994;DHT22;998;49.906;10.908;2023-07-31T01:44:10;18.00;99.90
1994;DHT22;998;49.906;10.908;2023-07-31T01:46:37;18.00;99.90
1994;DHT22;998;49.906;10.908;2023-07-31T01:49:06;18.10;99.90
1994;DHT22;998;49.906;10.908;2023-07-31T01:51:34;18.10;99.90
1994;DHT22;998;49.906;10.908;2023-07-31T01:54:01;18.10;99.90
1994;DHT22;998;49.906;10.908;2023-07-31T01:56:29;18.10;99.90
1994;DHT22;998;49.906;10.908;2023-07-31T01:58:58;18.10;99.90
1994;DHT22;998;49.906;10.908;2023-07-31T02:01:25;18.10;99.90
1994;DHT22;998;49.906;10.908;2023-07-31T02:03:52;18.10;99.90
1994;DHT22;998;49.906;10.908;2023-07-31T02:06:20;18.20;99.90
1994;DHT22;998;49.906;10.908;2023-07-31T02:08:48;18.20;99.90
1994;DHT22;998;49.906;10.908;2023-07-31T02:11:15;18.20;99.90
1994;DHT22;998;49.906;10.908;2023-07-31T02:13:43;18.20;99.90
1994;DHT22;998;49.906;10.908;2023-07-31T02:16:12;18.20;99.90
1994;DHT22;998;49.906;10.908;2023-07-31T02:18:39;18.20;99.90
1994;DHT22;998;49.906;10.908;2023-07-31T02:21:06;18.30;99.90
1994;DHT22;998;49.906;10.908;2023-07-31T02:23:33;18.30;99.90
1994;DHT22;998;49.906;10.908;2023-07-31T02:26:00;18.40;99.90
1994;DHT22;998;49.906;10.908;2023-07-31T02:28:29;18.40;99.90
1994;DHT22;998;49.906;10.908;2023-07-31T02:30:57;18.40;99.90
1994;DHT22;998;49.906;10.908;2023-07-31T02:33:24;18.40;99.90
1994;DHT22;998;49.906;10.908;2023-07-31T02:35:52;18.50;99.90
1994;DHT22;998;49.906;10.908;2023-07-31T02:38:19;18.50;99.90
1994;DHT22;998;49.906;10.908;2023-07-31T02:40:46;18.50;99.90
1994;DHT22;998;49.906;10.908;2023-07-31T02:43:14;18.50;99.90
1994;DHT22;998;49.906;10.908;2023-07-31T02:45:41;18.50;99.90
1994;DHT22;998;49.906;10.908;2023-07-31T02:48:08;18.50;99.90
1994;DHT22;998;49.906;10.908;2023-07-31T02:50:37;18.50;99.90
1994;DHT22;998;49.906;10.908;2023-07-31T02:53:05;18.50;99.90
1994;DHT22;998;49.906;10.908;2023-07-31T02:55:32;18.50;99.90
1994;DHT22;998;49.906;10.908;2023-07-31T02:58:00;18.50;99.90
1994;DHT22;998;49.906;10.908;2023-07-31T03:00:28;18.40;99.90
1994;DHT22;998;49.906;10.908;2023-07-31T03:02:55;18.40;99.90
1994;DHT22;998;49.906;10.908;2023-07-31T03:05:22;18.40;99.90
1994;DHT22;998;49.906;10.908;2023-07-31T03:07:51;18.40;99.90
1994;DHT22;998;49.906;10.908;2023-07-31T03:10:19;18.40;99.90
1994;DHT22;998;49.906;10.908;2023-07-31T03:12:47;18.40;99.90
1994;DHT22;998;49.906;10.908;2023-07-31T03:15:14;18.30;99.90
1994;DHT22;998;49.906;10.908;2023-07-31T03:17:41;18.30;99.90
1994;DHT22;998;49.906;10.908;2023-07-31T03:20:10;18.30;99.90
1994;DHT22;998;49.906;10.908;2023-07-31T03:22:37;18.30;99.90
1994;DHT22;998;49.906;10.908;2023-07-31T03:25:07;18.30;99.90
1994;DHT22;998;49.906;10.908;2023-07-31T03:27:35;18.30;99.90
1994;DHT22;998;49.906;10.908;2023-07-31T03:30:03;18.30;99.90
1994;DHT22;998;49.906;10.908;2023-07-31T03:32:31;18.40;99.90
1994;DHT22;998;49.906;10.908;2023-07-31T03:34:58;18.30;99.90
1994;DHT22;998;49.906;10.908;2023-07-31T03:37:25;18.30;99.90
1994;DHT22;998;49.906;10.908;2023-07-31T03:39:53;18.30;99.90
1994;DHT22;998;49.906;10.908;2023-07-31T03:42:22;18.30;99.90
1994;DHT22;998;49.906;10.908;2023-07-31T03:44:49;18.30;99.90
1994;DHT22;998;49.906;10.908;2023-07-31T03:47:16;18.30;99.90
1994;DHT22;998;49.906;10.908;2023-07-31T03:49:44;18.30;99.90
1994;DHT22;998;49.906;10.908;2023-07-31T03:52:11;18.30;99.90
1994;DHT22;998;49.906;10.908;2023-07-31T03:54:38;18.30;99.90
1994;DHT22;998;49.906;10.908;2023-07-31T03:57:06;18.30;99.90
1994;DHT22;998;49.906;10.908;2023-07-31T03:59:35;18.30;99.90
1994;DHT22;998;49.906;10.908;2023-07-31T04:02:04;18.30;99.90
1994;DHT22;998;49.906;10.908;2023-07-31T04:04:31;18.30;99.90
1994;DHT22;998;49.906;10.908;2023-07-31T04:06:59;18.30;99.90
1994;DHT22;998;49.906;10.908;2023-07-31T04:09:26;18.30;99.90
1994;DHT22;998;49.906;10.908;2023-07-31T04:11:54;18.30;99.90
1994;DHT22;998;49.906;10.908;2023-07-31T04:14:21;18.30;99.90
1994;DHT22;998;49.906;10.908;2023-07-31T04:16:50;18.30;99.90
1994;DHT22;998;49.906;10.908;2023-07-31T04:19:18;18.30;99.90
1994;DHT22;998;49.906;10.908;2023-07-31T04:21:45;18.30;99.90
1994;DHT22;998;49.906;10.908;2023-07-31T04:24:13;18.30;99.90
1994;DHT22;998;49.906;10.908;2023-07-31T04:26:40;18.30;99.90
1994;DHT22;998;49.906;10.908;2023-07-31T04:29:07;18.30;99.90
1994;DHT22;998;49.906;10.908;2023-07-31T04:31:35;18.40;99.90
1994;DHT22;998;49.906;10.908;2023-07-31T04:34:04;18.40;99.90
1994;DHT22;998;49.906;10.908;2023-07-31T04:36:31;18.40;99.90
1994;DHT22;998;49.906;10.908;2023-07-31T04:38:58;18.50;99.90
1994;DHT22;998;49.906;10.908;2023-07-31T04:41:26;18.50;99.90
1994;DHT22;998;49.906;10.908;2023-07-31T04:43:53;18.50;99.90
1994;DHT22;998;49.906;10.908;2023-07-31T04:46:21;18.50;99.90
1994;DHT22;998;49.906;10.908;2023-07-31T04:48:48;18.50;99.90
1994;DHT22;998;49.906;10.908;2023-07-31T04:51:17;18.50;99.90
1994;DHT22;998;49.906;10.908;2023-07-31T04:53:44;18.50;99.90
1994;DHT22;998;49.906;10.908;2023-07-31T04:56:12;18.60;99.90
1994;DHT22;998;49.906;10.908;2023-07-31T04:58:39;18.50;99.90
1994;DHT22;998;49.906;10.908;2023-07-31T05:01:07;18.50;99.90
1994;DHT22;998;49.906;10.908;2023-07-31T05:03:34;18.50;99.90
1994;DHT22;998;49.906;10.908;2023-07-31T05:06:02;18.50;99.90
1994;DHT22;998;49.906;10.908;2023-07-31T05:08:30;18.50;99.90
1994;DHT22;998;49.906;10.908;2023-07-31T05:10:59;18.50;99.90
1994;DHT22;998;49.906;10.908;2023-07-31T05:13:26;18.50;99.90
1994;DHT22;998;49.906;10.908;2023-07-31T05:15:54;18.50;99.90
1994;DHT22;998;49.906;10.908;2023-07-31T05:18:21;18.60;99.90
1994;DHT22;998;49.906;10.908;2023-07-31T05:20:48;18.50;99.90
1994;DHT22;998;49.906;10.908;2023-07-31T05:23:16;18.60;99.90
1994;DHT22;998;49.906;10.908;2023-07-31T05:25:45;18.60;99.90
1994;DHT22;998;49.906;10.908;2023-07-31T05:28:12;18.60;99.90
1994;DHT22;998;49.906;10.908;2023-07-31T05:30:39;18.60;99.90
1994;DHT22;998;49.906;10.908;2023-07-31T05:33:07;18.50;99.90
1994;DHT22;998;49.906;10.908;2023-07-31T05:35:34;18.60;99.90
1994;DHT22;998;49.906;10.908;2023-07-31T05:38:02;18.60;99.90
1994;DHT22;998;49.906;10.908;2023-07-31T05:40:32;18.60;99.90
1994;DHT22;998;49.906;10.908;2023-07-31T05:43:01;18.60;99.90
1994;DHT22;998;49.906;10.908;2023-07-31T05:45:28;18.60;99.90
1994;DHT22;998;49.906;10.908;2023-07-31T05:47:55;18.60;99.90
1994;DHT22;998;49.906;10.908;2023-07-31T05:50:23;18.70;99.90
1994;DHT22;998;49.906;10.908;2023-07-31T05:52:50;18.70;99.90
1994;DHT22;998;49.906;10.908;2023-07-31T05:55:17;19.70;99.90
1994;DHT22;998;49.906;10.908;2023-07-31T05:57:45;18.60;99.90
1994;DHT22;998;49.906;10.908;2023-07-31T06:00:14;18.50;99.90
1994;DHT22;998;49.906;10.908;2023-07-31T06:02:42;18.50;99.90
1994;DHT22;998;49.906;10.908;2023-07-31T06:05:09;18.50;99.90
1994;DHT22;998;49.906;10.908;2023-07-31T06:07:36;18.50;99.90
1994;DHT22;998;49.906;10.908;2023-07-31T06:10:05;18.50;99.90
1994;DHT22;998;49.906;10.908;2023-07-31T06:12:32;18.50;99.90
1994;DHT22;998;49.906;10.908;2023-07-31T06:15:00;18.50;99.90
1994;DHT22;998;49.906;10.908;2023-07-31T06:17:29;18.60;99.90
1994;DHT22;998;49.906;10.908;2023-07-31T06:19:56;18.50;99.90
1994;DHT22;998;49.906;10.908;2023-07-31T06:22:24;18.60;99.90
1994;DHT22;998;49.906;10.908;2023-07-31T06:24:51;18.60;99.90
1994;DHT22;998;49.906;10.908;2023-07-31T06:27:18;18.50;99.90
1994;DHT22;998;49.906;10.908;2023-07-31T06:29:46;18.60;99.90
1994;DHT22;998;49.906;10.908;2023-07-31T06:32:13;18.60;99.90
1994;DHT22;998;49.906;10.908;2023-07-31T06:34:42;18.60;99.90
1994;DHT22;998;49.906;10.908;2023-07-31T06:37:10;18.60;99.90
1994;DHT22;998;49.906;10.908;2023-07-31T06:39:37;18.60;99.90
1994;DHT22;998;49.906;10.908;2023-07-31T06:42:05;18.60;99.90
1994;DHT22;998;49.906;10.908;2023-07-31T06:44:32;18.60;99.90
1994;DHT22;998;49.906;10.908;2023-07-31T06:46:59;18.70;99.90
1994;DHT22;998;49.906;10.908;2023-07-31T06:49:26;18.70;99.90
1994;DHT22;998;49.906;10.908;2023-07-31T06:51:55;18.60;99.90
1994;DHT22;998;49.906;10.908;2023-07-31T06:54:23;18.60;99.90
1994;DHT22;998;49.906;10.908;2023-07-31T06:56:50;18.70;99.90
1994;DHT22;998;49.906;10.908;2023-07-31T06:59:17;18.70;99.90
1994;DHT22;998;49.906;10.908;2023-07-31T07:01:45;18.80;99.90
1994;DHT22;998;49.906;10.908;2023-07-31T07:04:13;18.80;99.90
1994;DHT22;998;49.906;10.908;2023-07-31T07:06:40;18.80;99.90
1994;DHT22;998;49.906;10.908;2023-07-31T07:09:09;18.80;99.90
1994;DHT22;998;49.906;10.908;2023-07-31T07:11:35;18.80;99.90
1994;DHT22;998;49.906;10.908;2023-07-31T07:14:03;18.80;99.90
1994;DHT22;998;49.906;10.908;2023-07-31T07:16:30;18.80;99.90
1994;DHT22;998;49.906;10.908;2023-07-31T07:18:57;18.80;99.90
1994;DHT22;998;49.906;10.908;2023-07-31T07:21:24;18.80;99.90
1994;DHT22;998;49.906;10.908;2023-07-31T07:23:50;18.80;99.90
1994;DHT22;998;49.906;10.908;2023-07-31T07:26:19;18.80;99.90
1994;DHT22;998;49.906;10.908;2023-07-31T07:28:46;18.80;99.90
1994;DHT22;998;49.906;10.908;2023-07-31T07:31:13;18.90;99.90
1994;DHT22;998;49.906;10.908;2023-07-31T07:33:40;18.90;99.90
1994;DHT22;998;49.906;10.908;2023-07-31T07:36:06;18.90;99.90
1994;DHT22;998;49.906;10.908;2023-07-31T07:38:35;19.00;99.90
1994;DHT22;998;49.906;10.908;2023-07-31T07:41:02;19.00;99.90
1994;DHT22;998;49.906;10.908;2023-07-31T07:43:30;19.00;99.90
1994;DHT22;998;49.906;10.908;2023-07-31T07:45:57;19.10;99.90
1994;DHT22;998;49.906;10.908;2023-07-31T07:48:24;19.10;99.90
1994;DHT22;998;49.906;10.908;2023-07-31T07:50:52;19.10;99.90
1994;DHT22;998;49.906;10.908;2023-07-31T07:53:19;19.10;99.90
1994;DHT22;998;49.906;10.908;2023-07-31T07:55:46;19.10;99.90
1994;DHT22;998;49.906;10.908;2023-07-31T07:58:13;19.10;99.90
1994;DHT22;998;49.906;10.908;2023-07-31T08:00:42;19.20;99.90
1994;DHT22;998;49.906;10.908;2023-07-31T08:03:14;19.20;99.90
1994;DHT22;998;49.906;10.908;2023-07-31T08:05:43;19.20;99.90
1994;DHT22;998;49.906;10.908;2023-07-31T08:08:14;19.30;99.90
1994;DHT22;998;49.906;10.908;2023-07-31T08:10:41;19.30;99.90
1994;DHT22;998;49.906;10.908;2023-07-31T08:13:09;19.30;99.90
1994;DHT22;998;49.906;10.908;2023-07-31T08:15:37;19.40;99.90
1994;DHT22;998;49.906;10.908;2023-07-31T08:18:05;19.50;99.90
1994;DHT22;998;49.906;10.908;2023-07-31T08:20:32;19.50;99.90
1994;DHT22;998;49.906;10.908;2023-07-31T08:23:00;19.50;99.90
1994;DHT22;998;49.906;10.908;2023-07-31T08:25:27;19.50;99.90
1994;DHT22;998;49.906;10.908;2023-07-31T08:27:54;19.40;99.90
1994;DHT22;998;49.906;10.908;2023-07-31T08:30:22;19.50;99.90
1994;DHT22;998;49.906;10.908;2023-07-31T08:32:49;19.50;99.90
1994;DHT22;998;49.906;10.908;2023-07-31T08:35:18;19.50;99.90
1994;DHT22;998;49.906;10.908;2023-07-31T08:37:45;19.50;99.90
1994;DHT22;998;49.906;10.908;2023-07-31T08:40:12;19.50;99.90
1994;DHT22;998;49.906;10.908;2023-07-31T08:42:44;19.60;99.90
1994;DHT22;998;49.906;10.908;2023-07-31T08:45:14;19.70;99.90
1994;DHT22;998;49.906;10.908;2023-07-31T08:47:44;19.80;99.90
1994;DHT22;998;49.906;10.908;2023-07-31T08:50:12;19.80;99.90
1994;DHT22;998;49.906;10.908;2023-07-31T08:52:41;19.90;99.90
1994;DHT22;998;49.906;10.908;2023-07-31T08:55:09;20.00;99.90
1994;DHT22;998;49.906;10.908;2023-07-31T08:57:37;20.10;99.90
1994;DHT22;998;49.906;10.908;2023-07-31T09:00:06;20.20;99.90
1994;DHT22;998;49.906;10.908;2023-07-31T09:02:37;20.20;99.90
1994;DHT22;998;49.906;10.908;2023-07-31T09:05:06;20.20;99.90
1994;DHT22;998;49.906;10.908;2023-07-31T09:07:34;21.70;99.90
1994;DHT22;998;49.906;10.908;2023-07-31T09:10:03;20.20;99.90
1994;DHT22;998;49.906;10.908;2023-07-31T09:12:30;20.20;99.90
1994;DHT22;998;49.906;10.908;2023-07-31T09:14:58;20.30;99.90
1994;DHT22;998;49.906;10.908;2023-07-31T09:17:29;20.30;99.90
1994;DHT22;998;49.906;10.908;2023-07-31T09:19:57;20.20;99.90
1994;DHT22;998;49.906;10.908;2023-07-31T09:22:31;20.20;99.90
1994;DHT22;998;49.906;10.908;2023-07-31T09:25:14;20.20;99.90
1994;DHT22;998;49.906;10.908;2023-07-31T09:27:47;20.40;99.90
1994;DHT22;998;49.906;10.908;2023-07-31T09:30:14;20.50;99.90
1994;DHT22;998;49.906;10.908;2023-07-31T09:32:41;20.50;99.90
1994;DHT22;998;49.906;10.908;2023-07-31T09:35:19;20.50;99.90
1994;DHT22;998;49.906;10.908;2023-07-31T09:37:51;20.60;99.90
1994;DHT22;998;49.906;10.908;2023-07-31T09:40:30;20.70;99.90
1994;DHT22;998;49.906;10.908;2023-07-31T09:42:58;20.60;99.90
1994;DHT22;998;49.906;10.908;2023-07-31T09:45:25;20.60;99.90
1994;DHT22;998;49.906;10.908;2023-07-31T09:47:53;20.60;99.90
1994;DHT22;998;49.906;10.908;2023-07-31T09:50:22;20.60;99.90
1994;DHT22;998;49.906;10.908;2023-07-31T09:52:50;20.70;99.90
1994;DHT22;998;49.906;10.908;2023-07-31T09:55:18;20.60;99.90
1994;DHT22;998;49.906;10.908;2023-07-31T09:57:47;20.60;99.90
1994;DHT22;998;49.906;10.908;2023-07-31T10:00:16;20.60;99.90
1994;DHT22;998;49.906;10.908;2023-07-31T10:02:46;20.70;99.90
1994;DHT22;998;49.906;10.908;2023-07-31T10:05:14;20.80;99.90
1994;DHT22;998;49.906;10.908;2023-07-31T10:07:45;20.80;99.90
1994;DHT22;998;49.906;10.908;2023-07-31T10:10:16;21.50;99.90
1994;DHT22;998;49.906;10.908;2023-07-31T10:12:45;20.80;99.90
1994;DHT22;998;49.906;10.908;2023-07-31T10:15:15;20.90;99.90
1994;DHT22;998;49.906;10.908;2023-07-31T10:17:42;21.00;99.90
1994;DHT22;998;49.906;10.908;2023-07-31T10:20:11;21.00;99.90
1994;DHT22;998;49.906;10.908;2023-07-31T10:22:38;21.10;99.90
1994;DHT22;998;49.906;10.908;2023-07-31T10:25:08;21.10;99.90
1994;DHT22;998;49.906;10.908;2023-07-31T10:27:36;21.10;99.90
1994;DHT22;998;49.906;10.908;2023-07-31T10:30:09;21.10;99.90
1994;DHT22;998;49.906;10.908;2023-07-31T10:32:38;21.10;99.90
1994;DHT22;998;49.906;10.908;2023-07-31T10:35:08;21.10;99.90
1994;DHT22;998;49.906;10.908;2023-07-31T10:37:40;21.10;99.90
1994;DHT22;998;49.906;10.908;2023-07-31T10:40:11;21.10;99.90
1994;DHT22;998;49.906;10.908;2023-07-31T10:42:46;21.20;99.90
1994;DHT22;998;49.906;10.908;2023-07-31T10:45:24;21.20;99.90
1994;DHT22;998;49.906;10.908;2023-07-31T10:47:58;21.30;99.90
1994;DHT22;998;49.906;10.908;2023-07-31T10:50:28;21.30;99.90
1994;DHT22;998;49.906;10.908;2023-07-31T10:52:56;21.20;99.90
1994;DHT22;998;49.906;10.908;2023-07-31T10:55:31;21.20;99.90
1994;DHT22;998;49.906;10.908;2023-07-31T10:58:07;21.20;99.90
1994;DHT22;998;49.906;10.908;2023-07-31T11:00:37;21.10;99.90
1994;DHT22;998;49.906;10.908;2023-07-31T11:03:05;21.20;99.90
1994;DHT22;998;49.906;10.908;2023-07-31T11:05:51;21.20;99.90
1994;DHT22;998;49.906;10.908;2023-07-31T11:08:22;21.30;99.90
1994;DHT22;998;49.906;10.908;2023-07-31T11:11:04;21.30;99.90
1994;DHT22;998;49.906;10.908;2023-07-31T11:13:33;21.30;99.90
1994;DHT22;998;49.906;10.908;2023-07-31T11:16:02;21.30;99.90
1994;DHT22;998;49.906;10.908;2023-07-31T11:18:30;21.30;99.90
1994;DHT22;998;49.906;10.908;2023-07-31T11:20:57;21.30;99.90
1994;DHT22;998;49.906;10.908;2023-07-31T11:23:25;21.30;99.90
1994;DHT22;998;49.906;10.908;2023-07-31T11:25:52;21.30;99.90
1994;DHT22;998;49.906;10.908;2023-07-31T11:28:19;21.30;99.90
1994;DHT22;998;49.906;10.908;2023-07-31T11:30:47;21.10;99.90
1994;DHT22;998;49.906;10.908;2023-07-31T11:33:15;21.20;99.90
1994;DHT22;998;49.906;10.908;2023-07-31T11:35:45;21.10;99.90
1994;DHT22;998;49.906;10.908;2023-07-31T11:38:16;21.00;99.90
1994;DHT22;998;49.906;10.908;2023-07-31T11:40:48;21.00;99.90
1994;DHT22;998;49.906;10.908;2023-07-31T11:43:15;21.10;99.90
1994;DHT22;998;49.906;10.908;2023-07-31T11:45:46;21.10;99.90
1994;DHT22;998;49.906;10.908;2023-07-31T11:48:20;21.10;99.90
1994;DHT22;998;49.906;10.908;2023-07-31T11:50:49;21.10;99.90
1994;DHT22;998;49.906;10.908;2023-07-31T11:53:20;21.20;99.90
1994;DHT22;998;49.906;10.908;2023-07-31T11:55:48;21.10;99.90
1994;DHT22;998;49.906;10.908;2023-07-31T11:58:16;21.10;99.90
1994;DHT22;998;49.906;10.908;2023-07-31T12:00:45;21.10;99.90
1994;DHT22;998;49.906;10.908;2023-07-31T12:03:13;21.10;99.90
1994;DHT22;998;49.906;10.908;2023-07-31T12:05:42;21.20;99.90
1994;DHT22;998;49.906;10.908;2023-07-31T12:08:10;21.20;99.90
1994;DHT22;998;49.906;10.908;2023-07-31T12:10:39;21.10;99.90
1994;DHT22;998;49.906;10.908;2023-07-31T12:13:09;21.10;99.90
1994;DHT22;998;49.906;10.908;2023-07-31T12:15:40;21.10;99.90
1994;DHT22;998;49.906;10.908;2023-07-31T12:18:09;21.10;99.90
1994;DHT22;998;49.906;10.908;2023-07-31T12:20:42;21.10;99.90
1994;DHT22;998;49.906;10.908;2023-07-31T12:23:17;21.10;99.90
1994;DHT22;998;49.906;10.908;2023-07-31T12:25:44;21.00;99.90
1994;DHT22;998;49.906;10.908;2023-07-31T12:28:12;21.10;99.90
1994;DHT22;998;49.906;10.908;2023-07-31T12:30:40;21.10;99.90
1994;DHT22;998;49.906;10.908;2023-07-31T12:33:13;21.10;99.90
1994;DHT22;998;49.906;10.908;2023-07-31T12:35:46;21.20;99.90
1994;DHT22;998;49.906;10.908;2023-07-31T12:38:14;21.20;99.90
1994;DHT22;998;49.906;10.908;2023-07-31T12:40:41;21.30;99.90
1994;DHT22;998;49.906;10.908;2023-07-31T12:43:09;21.30;99.90
1994;DHT22;998;49.906;10.908;2023-07-31T12:45:36;21.30;99.90
1994;DHT22;998;49.906;10.908;2023-07-31T12:48:04;21.30;99.90
1994;DHT22;998;49.906;10.908;2023-07-31T12:50:31;21.40;99.90
1994;DHT22;998;49.906;10.908;2023-07-31T12:53:00;21.30;99.90
1994;DHT22;998;49.906;10.908;2023-07-31T12:55:29;21.30;99.90
1994;DHT22;998;49.906;10.908;2023-07-31T12:57:56;21.40;99.90
1994;DHT22;998;49.906;10.908;2023-07-31T13:00:23;21.50;99.90
1994;DHT22;998;49.906;10.908;2023-07-31T13:02:52;21.70;99.90
1994;DHT22;998;49.906;10.908;2023-07-31T13:05:19;21.80;99.90
1994;DHT22;998;49.906;10.908;2023-07-31T13:07:47;21.70;99.90
1994;DHT22;998;49.906;10.908;2023-07-31T13:10:15;21.70;99.90
1994;DHT22;998;49.906;10.908;2023-07-31T13:12:42;21.80;99.90
1994;DHT22;998;49.906;10.908;2023-07-31T13:15:09;21.80;99.90
1994;DHT22;998;49.906;10.908;2023-07-31T13:17:37;21.70;99.90
1994;DHT22;998;49.906;10.908;2023-07-31T13:20:05;21.80;99.90
1994;DHT22;998;49.906;10.908;2023-07-31T13:22:32;21.80;99.90
1994;DHT22;998;49.906;10.908;2023-07-31T13:25:00;21.90;99.90
1994;DHT22;998;49.906;10.908;2023-07-31T13:27:29;21.70;99.90
1994;DHT22;998;49.906;10.908;2023-07-31T13:29:56;21.80;99.90
1994;DHT22;998;49.906;10.908;2023-07-31T13:32:23;21.80;99.90
1994;DHT22;998;49.906;10.908;2023-07-31T13:34:51;21.80;99.90
1994;DHT22;998;49.906;10.908;2023-07-31T13:37:18;21.90;99.90
1994;DHT22;998;49.906;10.908;2023-07-31T13:39:46;21.90;99.90
1994;DHT22;998;49.906;10.908;2023-07-31T13:42:13;21.90;99.90
1994;DHT22;998;49.906;10.908;2023-07-31T13:44:42;21.80;99.90
1994;DHT22;998;49.906;10.908;2023-07-31T13:47:09;21.90;99.90
1994;DHT22;998;49.906;10.908;2023-07-31T13:49:36;22.00;99.90
1994;DHT22;998;49.906;10.908;2023-07-31T13:52:04;22.00;99.90
1994;DHT22;998;49.906;10.908;2023-07-31T13:54:31;22.00;99.90
1994;DHT22;998;49.906;10.908;2023-07-31T13:56:58;22.00;99.90
1994;DHT22;998;49.906;10.908;2023-07-31T13:59:25;22.00;99.90
1994;DHT22;998;49.906;10.908;2023-07-31T14:01:53;22.00;99.90
1994;DHT22;998;49.906;10.908;2023-07-31T14:04:20;21.90;99.90
1994;DHT22;998;49.906;10.908;2023-07-31T14:06:46;21.90;99.90
1994;DHT22;998;49.906;10.908;2023-07-31T14:09:15;22.00;99.90
1994;DHT22;998;49.906;10.908;2023-07-31T14:11:43;22.00;99.90
1994;DHT22;998;49.906;10.908;2023-07-31T14:14:09;21.90;99.90
1994;DHT22;998;49.906;10.908;2023-07-31T14:16:37;21.90;99.90
1994;DHT22;998;49.906;10.908;2023-07-31T14:19:05;21.80;99.90
1994;DHT22;998;49.906;10.908;2023-07-31T14:21:33;21.70;99.90
1994;DHT22;998;49.906;10.908;2023-07-31T14:23:59;21.70;99.90
1994;DHT22;998;49.906;10.908;2023-07-31T14:26:26;21.70;99.90
1994;DHT22;998;49.906;10.908;2023-07-31T14:28:53;21.70;99.90
1994;DHT22;998;49.906;10.908;2023-07-31T14:31:20;21.70;99.90
1994;DHT22;998;49.906;10.908;2023-07-31T14:33:47;21.70;99.90
1994;DHT22;998;49.906;10.908;2023-07-31T14:36:15;21.80;99.90
1994;DHT22;998;49.906;10.908;2023-07-31T14:38:41;21.70;99.90
1994;DHT22;998;49.906;10.908;2023-07-31T14:41:08;21.70;99.90
1994;DHT22;998;49.906;10.908;2023-07-31T14:43:35;21.80;99.90
1994;DHT22;998;49.906;10.908;2023-07-31T14:46:02;21.80;99.90
1994;DHT22;998;49.906;10.908;2023-07-31T14:48:28;21.80;99.90
1994;DHT22;998;49.906;10.908;2023-07-31T14:50:55;21.90;99.90
1994;DHT22;998;49.906;10.908;2023-07-31T14:53:23;21.80;99.90
1994;DHT22;998;49.906;10.908;2023-07-31T14:55:50;21.90;99.90
1994;DHT22;998;49.906;10.908;2023-07-31T14:58:17;21.90;99.90
1994;DHT22;998;49.906;10.908;2023-07-31T15:00:44;21.80;99.90
1994;DHT22;998;49.906;10.908;2023-07-31T15:03:11;21.70;99.90
1994;DHT22;998;49.906;10.908;2023-07-31T15:05:37;21.80;99.90
1994;DHT22;998;49.906;10.908;2023-07-31T15:08:05;21.70;99.90
1994;DHT22;998;49.906;10.908;2023-07-31T15:10:34;21.80;99.90
1994;DHT22;998;49.906;10.908;2023-07-31T15:13:01;21.90;99.90
1994;DHT22;998;49.906;10.908;2023-07-31T15:15:29;21.80;99.90
1994;DHT22;998;49.906;10.908;2023-07-31T15:17:56;21.80;99.90
1994;DHT22;998;49.906;10.908;2023-07-31T15:20:24;21.80;99.90
1994;DHT22;998;49.906;10.908;2023-07-31T15:22:51;21.80;99.90
1994;DHT22;998;49.906;10.908;2023-07-31T15:25:18;21.80;99.90
1994;DHT22;998;49.906;10.908;2023-07-31T15:27:47;21.80;99.90
1994;DHT22;998;49.906;10.908;2023-07-31T15:30:15;21.90;99.90
1994;DHT22;998;49.906;10.908;2023-07-31T15:32:42;21.80;99.90
1994;DHT22;998;49.906;10.908;2023-07-31T15:35:14;21.80;99.90
1994;DHT22;998;49.906;10.908;2023-07-31T15:37:41;21.70;99.90
1994;DHT22;998;49.906;10.908;2023-07-31T15:40:09;21.70;99.90
1994;DHT22;998;49.906;10.908;2023-07-31T15:42:37;21.70;99.90
1994;DHT22;998;49.906;10.908;2023-07-31T15:45:08;21.70;99.90
1994;DHT22;998;49.906;10.908;2023-07-31T15:47:36;21.80;99.90
1994;DHT22;998;49.906;10.908;2023-07-31T15:50:04;21.90;99.90
1994;DHT22;998;49.906;10.908;2023-07-31T15:52:31;21.80;99.90
1994;DHT22;998;49.906;10.908;2023-07-31T15:54:59;21.80;99.90
1994;DHT22;998;49.906;10.908;2023-07-31T15:57:26;21.80;99.90
1994;DHT22;998;49.906;10.908;2023-07-31T15:59:53;21.80;99.90
1994;DHT22;998;49.906;10.908;2023-07-31T16:02:22;21.80;99.90
1994;DHT22;998;49.906;10.908;2023-07-31T16:04:49;21.80;99.90
1994;DHT22;998;49.906;10.908;2023-07-31T16:07:17;21.80;99.90
1994;DHT22;998;49.906;10.908;2023-07-31T16:09:44;21.70;99.90
1994;DHT22;998;49.906;10.908;2023-07-31T16:12:12;21.70;99.90